sensor_id;sensor_type;location;lat;lon;timestamp;temperature;humidity
44707;DHT22;30433;45.596;8.408;2022-08-18T00:05:59;19.70;99.90
44707;DHT22;30433;45.596;8.408;2022-08-18T00:12:07;19.70;99.90
44707;DHT22;30433;45.596;8.408;2022-08-18T00:18:10;19.80;99.90
44707;DHT22;30433;45.596;8.408;2022-08-18T00:24:12;19.70;99.90
44707;DHT22;30433;45.596;8.408;2022-08-18T00:30:19;19.70;99.90
44707;DHT22;30433;45.596;8.408;2022-08-18T00:36:21;19.70;99.90
44707;DHT22;30433;45.596;8.408;2022-08-18T00:42:25;19.80;99.90
44707;DHT22;30433;45.596;8.408;2022-08-18T00:48:29;19.80;99.90
44707;DHT22;30433;45.596;8.408;2022-08-18T00:54:32;19.80;99.90
44707;DHT22;30433;45.596;8.408;2022-08-18T01:00:36;19.90;99.90
44707;DHT22;30433;45.596;8.408;2022-08-18T01:06:43;19.90;99.90
44707;DHT22;30433;45.596;8.408;2022-08-18T01:12:51;19.70;99.90
44707;DHT22;30433;45.596;8.408;2022-08-18T01:18:53;19.50;99.90
44707;DHT22;30433;45.596;8.408;2022-08-18T01:25:15;19.60;99.90
44707;DHT22;30433;45.596;8.408;2022-08-18T01:31:38;19.30;99.90
44707;DHT22;30433;45.596;8.408;2022-08-18T01:37:40;19.60;99.90
44707;DHT22;30433;45.596;8.408;2022-08-18T01:43:44;19.80;99.90
44707;DHT22;30433;45.596;8.408;2022-08-18T01:49:47;19.60;99.90
44707;DHT22;30433;45.596;8.408;2022-08-18T01:55:49;19.40;99.90
44707;DHT22;30433;45.596;8.408;2022-08-18T02:01:52;19.60;99.90
44707;DHT22;30433;45.596;8.408;2022-08-18T02:07:55;19.50;99.90
44707;DHT22;30433;45.596;8.408;2022-08-18T02:13:58;19.10;99.90
44707;DHT22;30433;45.596;8.408;2022-08-18T02:20:01;18.90;99.90
44707;DHT22;30433;45.596;8.408;2022-08-18T02:26:05;18.50;99.90
44707;DHT22;30433;45.596;8.408;2022-08-18T02:32:08;18.40;99.90
44707;DHT22;30433;45.596;8.408;2022-08-18T02:38:11;18.50;99.90
44707;DHT22;30433;45.596;8.408;2022-08-18T02:44:13;18.90;99.90
44707;DHT22;30433;45.596;8.408;2022-08-18T02:50:16;18.80;99.90
44707;DHT22;30433;45.596;8.408;2022-08-18T02:56:21;18.40;99.90
44707;DHT22;30433;45.596;8.408;2022-08-18T03:02:24;18.50;99.90
44707;DHT22;30433;45.596;8.408;2022-08-18T03:08:26;18.60;99.90
44707;DHT22;30433;45.596;8.408;2022-08-18T03:14:30;18.70;99.90
44707;DHT22;30433;45.596;8.408;2022-08-18T03:20:32;18.70;99.90
44707;DHT22;30433;45.596;8.408;2022-08-18T03:26:34;18.50;99.90
44707;DHT22;30433;45.596;8.408;2022-08-18T03:32:38;18.50;99.90
44707;DHT22;30433;45.596;8.408;2022-08-18T03:38:41;18.40;99.90
44707;DHT22;30433;45.596;8.408;2022-08-18T03:44:43;18.50;99.90
44707;DHT22;30433;45.596;8.408;2022-08-18T03:50:47;18.30;99.90
44707;DHT22;30433;45.596;8.408;2022-08-18T03:56:49;18.40;99.90
44707;DHT22;30433;45.596;8.408;2022-08-18T04:02:54;18.30;99.90
44707;DHT22;30433;45.596;8.408;2022-08-18T04:09:00;18.50;99.90
44707;DHT22;30433;45.596;8.408;2022-08-18T04:15:04;18.50;99.90
44707;DHT22;30433;45.596;8.408;2022-08-18T04:21:08;18.60;99.90
44707;DHT22;30433;45.596;8.408;2022-08-18T04:27:12;18.40;99.90
44707;DHT22;30433;45.596;8.408;2022-08-18T04:33:14;18.20;99.90
44707;DHT22;30433;45.596;8.408;2022-08-18T04:39:16;18.40;99.90
44707;DHT22;30433;45.596;8.408;2022-08-18T04:45:20;18.20;99.90
44707;DHT22;30433;45.596;8.408;2022-08-18T04:51:22;18.30;99.90
44707;DHT22;30433;45.596;8.408;2022-08-18T04:57:24;18.60;99.90
44707;DHT22;30433;45.596;8.408;2022-08-18T05:03:28;18.40;99.90
44707;DHT22;30433;45.596;8.408;2022-08-18T05:09:31;18.40;99.90
44707;DHT22;30433;45.596;8.408;2022-08-18T05:15:33;18.40;99.90
44707;DHT22;30433;45.596;8.408;2022-08-18T05:21:38;18.70;99.90
44707;DHT22;30433;45.596;8.408;2022-08-18T05:27:41;18.70;99.90
44707;DHT22;30433;45.596;8.408;2022-08-18T05:33:45;18.90;99.90
44707;DHT22;30433;45.596;8.408;2022-08-18T05:39:55;18.80;99.90
44707;DHT22;30433;45.596;8.408;2022-08-18T05:46:00;18.80;99.90
44707;DHT22;30433;45.596;8.408;2022-08-18T05:52:06;18.90;99.90
44707;DHT22;30433;45.596;8.408;2022-08-18T05:58:14;18.80;99.90
44707;DHT22;30433;45.596;8.408;2022-08-18T06:04:33;18.80;99.90
44707;DHT22;30433;45.596;8.408;2022-08-18T06:10:47;19.00;99.90
44707;DHT22;30433;45.596;8.408;2022-08-18T06:16:59;18.90;99.90
44707;DHT22;30433;45.596;8.408;2022-08-18T06:23:17;19.10;99.90
44707;DHT22;30433;45.596;8.408;2022-08-18T06:29:34;19.10;99.90
44707;DHT22;30433;45.596;8.408;2022-08-18T06:35:46;19.10;99.90
44707;DHT22;30433;45.596;8.408;2022-08-18T06:41:50;19.30;99.90
44707;DHT22;30433;45.596;8.408;2022-08-18T06:47:57;19.10;99.90
44707;DHT22;30433;45.596;8.408;2022-08-18T06:54:05;19.30;99.90
44707;DHT22;30433;45.596;8.408;2022-08-18T07:00:20;19.50;99.90
44707;DHT22;30433;45.596;8.408;2022-08-18T07:06:27;20.30;99.90
44707;DHT22;30433;45.596;8.408;2022-08-18T07:12:31;20.50;99.90
44707;DHT22;30433;45.596;8.408;2022-08-18T07:18:34;20.70;99.90
44707;DHT22;30433;45.596;8.408;2022-08-18T07:24:40;20.70;99.90
44707;DHT22;30433;45.596;8.408;2022-08-18T07:30:44;21.20;99.90
44707;DHT22;30433;45.596;8.408;2022-08-18T07:36:49;21.50;99.90
44707;DHT22;30433;45.596;8.408;2022-08-18T07:42:58;21.10;99.90
44707;DHT22;30433;45.596;8.408;2022-08-18T07:49:03;20.90;99.90
44707;DHT22;30433;45.596;8.408;2022-08-18T07:55:20;20.80;99.90
44707;DHT22;30433;45.596;8.408;2022-08-18T08:01:31;20.70;99.90
44707;DHT22;30433;45.596;8.408;2022-08-18T08:07:40;20.60;99.90
44707;DHT22;30433;45.596;8.408;2022-08-18T08:14:00;20.70;99.90
44707;DHT22;30433;45.596;8.408;2022-08-18T08:20:17;20.80;99.90
44707;DHT22;30433;45.596;8.408;2022-08-18T08:26:31;21.00;99.90
44707;DHT22;30433;45.596;8.408;2022-08-18T08:32:38;21.10;99.90
44707;DHT22;30433;45.596;8.408;2022-08-18T08:38:46;21.20;99.90
44707;DHT22;30433;45.596;8.408;2022-08-18T08:44:55;21.20;99.90
44707;DHT22;30433;45.596;8.408;2022-08-18T08:51:02;21.30;99.90
44707;DHT22;30433;45.596;8.408;2022-08-18T08:57:10;21.30;99.90
44707;DHT22;30433;45.596;8.408;2022-08-18T09:03:28;21.30;99.90
44707;DHT22;30433;45.596;8.408;2022-08-18T09:09:51;21.30;99.90
44707;DHT22;30433;45.596;8.408;2022-08-18T09:16:08;21.20;99.90
44707;DHT22;30433;45.596;8.408;2022-08-18T09:22:24;21.20;99.90
44707;DHT22;30433;45.596;8.408;2022-08-18T09:28:51;21.20;99.90
44707;DHT22;30433;45.596;8.408;2022-08-18T09:35:06;21.10;99.90
44707;DHT22;30433;45.596;8.408;2022-08-18T09:41:22;21.10;99.90
44707;DHT22;30433;45.596;8.408;2022-08-18T09:47:59;21.00;99.90
44707;DHT22;30433;45.596;8.408;2022-08-18T09:54:14;21.00;99.90
44707;DHT22;30433;45.596;8.408;2022-08-18T10:00:30;21.10;99.90
44707;DHT22;30433;45.596;8.408;2022-08-18T10:06:36;21.00;99.90
44707;DHT22;30433;45.596;8.408;2022-08-18T10:12:53;21.00;99.90
44707;DHT22;30433;45.596;8.408;2022-08-18T10:19:07;21.00;99.90
44707;DHT22;30433;45.596;8.408;2022-08-18T10:25:31;21.00;99.90
44707;DHT22;30433;45.596;8.408;2022-08-18T10:32:16;20.90;99.90
44707;DHT22;30433;45.596;8.408;2022-08-18T10:38:24;20.80;99.90
44707;DHT22;30433;45.596;8.408;2022-08-18T10:44:27;20.50;99.90
44707;DHT22;30433;45.596;8.408;2022-08-18T10:50:36;20.40;99.90
44707;DHT22;30433;45.596;8.408;2022-08-18T10:56:45;20.10;99.90
44707;DHT22;30433;45.596;8.408;2022-08-18T11:03:00;20.10;99.90
44707;DHT22;30433;45.596;8.408;2022-08-18T11:09:07;20.10;99.90
44707;DHT22;30433;45.596;8.408;2022-08-18T11:15:15;20.00;99.90
44707;DHT22;30433;45.596;8.408;2022-08-18T11:21:29;20.10;99.90
44707;DHT22;30433;45.596;8.408;2022-08-18T11:27:33;20.10;99.90
44707;DHT22;30433;45.596;8.408;2022-08-18T11:33:40;19.90;99.90
44707;DHT22;30433;45.596;8.408;2022-08-18T11:39:47;19.80;99.90
44707;DHT22;30433;45.596;8.408;2022-08-18T11:45:53;19.70;99.90
44707;DHT22;30433;45.596;8.408;2022-08-18T11:51:59;19.50;99.90
44707;DHT22;30433;45.596;8.408;2022-08-18T11:58:02;19.30;99.90
44707;DHT22;30433;45.596;8.408;2022-08-18T12:04:21;19.20;99.90
44707;DHT22;30433;45.596;8.408;2022-08-18T12:10:26;19.60;99.90
44707;DHT22;30433;45.596;8.408;2022-08-18T12:16:36;20.00;99.90
44707;DHT22;30433;45.596;8.408;2022-08-18T12:22:42;20.00;99.90
44707;DHT22;30433;45.596;8.408;2022-08-18T12:28:46;20.10;99.90
44707;DHT22;30433;45.596;8.408;2022-08-18T12:34:48;20.20;99.90
44707;DHT22;30433;45.596;8.408;2022-08-18T12:40:50;20.40;99.90
44707;DHT22;30433;45.596;8.408;2022-08-18T12:46:54;20.50;99.90
44707;DHT22;30433;45.596;8.408;2022-08-18T12:52:57;20.50;99.90
44707;DHT22;30433;45.596;8.408;2022-08-18T12:59:01;20.50;99.90
44707;DHT22;30433;45.596;8.408;2022-08-18T13:05:06;20.60;99.90
44707;DHT22;30433;45.596;8.408;2022-08-18T13:11:08;20.60;99.90
44707;DHT22;30433;45.596;8.408;2022-08-18T13:17:11;20.50;99.90
44707;DHT22;30433;45.596;8.408;2022-08-18T13:23:15;20.50;99.90
44707;DHT22;30433;45.596;8.408;2022-08-18T13:29:17;20.40;99.90
44707;DHT22;30433;45.596;8.408;2022-08-18T13:35:20;20.50;99.90
44707;DHT22;30433;45.596;8.408;2022-08-18T13:41:24;20.50;99.90
44707;DHT22;30433;45.596;8.408;2022-08-18T13:47:26;20.30;99.90
44707;DHT22;30433;45.596;8.408;2022-08-18T13:53:29;20.50;99.90
44707;DHT22;30433;45.596;8.408;2022-08-18T13:59:32;20.60;99.90
44707;DHT22;30433;45.596;8.408;2022-08-18T14:05:35;20.90;99.90
44707;DHT22;30433;45.596;8.408;2022-08-18T14:11:37;20.70;99.90
44707;DHT22;30433;45.596;8.408;2022-08-18T14:17:41;20.90;99.90
44707;DHT22;30433;45.596;8.408;2022-08-18T14:23:44;20.80;99.90
44707;DHT22;30433;45.596;8.408;2022-08-18T14:30:05;21.10;99.90
44707;DHT22;30433;45.596;8.408;2022-08-18T14:36:09;21.10;99.90
44707;DHT22;30433;45.596;8.408;2022-08-18T14:42:14;20.70;99.90
44707;DHT22;30433;45.596;8.408;2022-08-18T14:48:20;21.10;99.90
44707;DHT22;30433;45.596;8.408;2022-08-18T14:54:24;21.30;99.90
44707;DHT22;30433;45.596;8.408;2022-08-18T15:00:27;21.30;99.90
44707;DHT22;30433;45.596;8.408;2022-08-18T15:06:30;21.50;99.90
44707;DHT22;30433;45.596;8.408;2022-08-18T15:12:33;21.50;99.90
44707;DHT22;30433;45.596;8.408;2022-08-18T15:18:36;21.50;99.90
44707;DHT22;30433;45.596;8.408;2022-08-18T15:24:39;21.50;99.90
44707;DHT22;30433;45.596;8.408;2022-08-18T15:31:00;21.70;99.90
44707;DHT22;30433;45.596;8.408;2022-08-18T15:37:02;21.50;99.90
44707;DHT22;30433;45.596;8.408;2022-08-18T15:43:05;22.00;99.90
44707;DHT22;30433;45.596;8.408;2022-08-18T15:49:10;21.80;99.90
44707;DHT22;30433;45.596;8.408;2022-08-18T15:55:12;21.50;99.90
44707;DHT22;30433;45.596;8.408;2022-08-18T16:01:15;21.80;99.90
44707;DHT22;30433;45.596;8.408;2022-08-18T16:07:20;21.90;99.90
44707;DHT22;30433;45.596;8.408;2022-08-18T16:13:23;21.90;99.90
44707;DHT22;30433;45.596;8.408;2022-08-18T16:19:28;21.50;99.90
44707;DHT22;30433;45.596;8.408;2022-08-18T16:25:32;21.40;99.90
44707;DHT22;30433;45.596;8.408;2022-08-18T16:31:35;21.50;99.90
44707;DHT22;30433;45.596;8.408;2022-08-18T16:37:37;21.80;99.90
44707;DHT22;30433;45.596;8.408;2022-08-18T16:43:43;21.70;99.90
44707;DHT22;30433;45.596;8.408;2022-08-18T16:49:46;21.90;99.90
44707;DHT22;30433;45.596;8.408;2022-08-18T16:55:50;22.00;99.90
44707;DHT22;30433;45.596;8.408;2022-08-18T17:01:54;22.10;99.90
44707;DHT22;30433;45.596;8.408;2022-08-18T17:08:14;22.00;99.90
44707;DHT22;30433;45.596;8.408;2022-08-18T17:14:16;21.80;99.90
44707;DHT22;30433;45.596;8.408;2022-08-18T17:20:20;21.60;99.90
44707;DHT22;30433;45.596;8.408;2022-08-18T17:26:34;21.70;99.90
44707;DHT22;30433;45.596;8.408;2022-08-18T17:32:43;21.50;99.90
44707;DHT22;30433;45.596;8.408;2022-08-18T17:38:50;21.60;99.90
44707;DHT22;30433;45.596;8.408;2022-08-18T17:44:59;21.40;99.90
44707;DHT22;30433;45.596;8.408;2022-08-18T17:51:07;21.30;99.90
44707;DHT22;30433;45.596;8.408;2022-08-18T17:57:30;21.10;99.90
44707;DHT22;30433;45.596;8.408;2022-08-18T18:03:34;21.10;99.90
44707;DHT22;30433;45.596;8.408;2022-08-18T18:09:37;21.10;99.90
44707;DHT22;30433;45.596;8.408;2022-08-18T18:15:44;21.00;99.90
44707;DHT22;30433;45.596;8.408;2022-08-18T18:22:01;20.90;99.90
44707;DHT22;30433;45.596;8.408;2022-08-18T18:28:04;20.70;99.90
44707;DHT22;30433;45.596;8.408;2022-08-18T18:34:16;20.60;99.90
44707;DHT22;30433;45.596;8.408;2022-08-18T18:40:25;20.50;99.90
44707;DHT22;30433;45.596;8.408;2022-08-18T18:46:30;20.40;99.90
44707;DHT22;30433;45.596;8.408;2022-08-18T18:52:42;19.80;99.90
44707;DHT22;30433;45.596;8.408;2022-08-18T18:59:00;20.10;99.90
44707;DHT22;30433;45.596;8.408;2022-08-18T19:05:13;20.10;99.90
44707;DHT22;30433;45.596;8.408;2022-08-18T19:11:23;20.10;99.90
44707;DHT22;30433;45.596;8.408;2022-08-18T19:17:35;19.90;99.90
44707;DHT22;30433;45.596;8.408;2022-08-18T19:23:43;19.70;99.90
44707;DHT22;30433;45.596;8.408;2022-08-18T19:29:52;19.70;99.90
44707;DHT22;30433;45.596;8.408;2022-08-18T19:36:00;19.60;99.90
44707;DHT22;30433;45.596;8.408;2022-08-18T19:42:07;19.40;99.90
44707;DHT22;30433;45.596;8.408;2022-08-18T19:48:17;19.40;99.90
44707;DHT22;30433;45.596;8.408;2022-08-18T19:54:40;19.40;99.90
44707;DHT22;30433;45.596;8.408;2022-08-18T20:00:53;19.30;99.90
44707;DHT22;30433;45.596;8.408;2022-08-18T20:07:17;19.30;99.90
44707;DHT22;30433;45.596;8.408;2022-08-18T20:13:28;19.20;99.90
44707;DHT22;30433;45.596;8.408;2022-08-18T20:19:44;19.10;99.90
44707;DHT22;30433;45.596;8.408;2022-08-18T20:25:47;19.10;99.90
44707;DHT22;30433;45.596;8.408;2022-08-18T20:31:57;19.10;99.90
44707;DHT22;30433;45.596;8.408;2022-08-18T20:38:11;18.80;99.90
44707;DHT22;30433;45.596;8.408;2022-08-18T20:50:52;19.00;99.90
44707;DHT22;30433;45.596;8.408;2022-08-18T20:56:59;19.30;99.90
44707;DHT22;30433;45.596;8.408;2022-08-18T21:03:11;19.10;99.90
44707;DHT22;30433;45.596;8.408;2022-08-18T21:09:16;18.90;99.90
44707;DHT22;30433;45.596;8.408;2022-08-18T21:15:20;18.90;99.90
44707;DHT22;30433;45.596;8.408;2022-08-18T21:21:26;19.10;99.90
44707;DHT22;30433;45.596;8.408;2022-08-18T21:27:32;19.20;99.90
44707;DHT22;30433;45.596;8.408;2022-08-18T21:33:36;19.20;99.90
44707;DHT22;30433;45.596;8.408;2022-08-18T21:39:48;19.10;99.90
44707;DHT22;30433;45.596;8.408;2022-08-18T21:45:51;19.10;99.90
44707;DHT22;30433;45.596;8.408;2022-08-18T21:51:59;19.10;99.90
44707;DHT22;30433;45.596;8.408;2022-08-18T21:58:06;19.40;99.90
44707;DHT22;30433;45.596;8.408;2022-08-18T22:04:20;19.30;99.90
44707;DHT22;30433;45.596;8.408;2022-08-18T22:10:26;19.30;99.90
44707;DHT22;30433;45.596;8.408;2022-08-18T22:16:48;19.30;99.90
44707;DHT22;30433;45.596;8.408;2022-08-18T22:22:50;19.50;99.90
44707;DHT22;30433;45.596;8.408;2022-08-18T22:29:12;19.50;99.90
44707;DHT22;30433;45.596;8.408;2022-08-18T22:35:18;19.40;99.90
44707;DHT22;30433;45.596;8.408;2022-08-18T22:41:21;19.40;99.90
44707;DHT22;30433;45.596;8.408;2022-08-18T22:47:23;19.20;99.90
44707;DHT22;30433;45.596;8.408;2022-08-18T22:53:27;19.40;99.90
44707;DHT22;30433;45.596;8.408;2022-08-18T22:59:30;19.20;99.90
44707;DHT22;30433;45.596;8.408;2022-08-18T23:05:32;19.20;99.90
44707;DHT22;30433;45.596;8.408;2022-08-18T23:11:35;19.20;99.90
44707;DHT22;30433;45.596;8.408;2022-08-18T23:17:38;19.30;99.90
44707;DHT22;30433;45.596;8.408;2022-08-18T23:23:41;19.20;99.90
44707;DHT22;30433;45.596;8.408;2022-08-18T23:29:44;19.30;99.90
44707;DHT22;30433;45.596;8.408;2022-08-18T23:35:49;19.10;99.90
44707;DHT22;30433;45.596;8.408;2022-08-18T23:41:52;19.30;99.90
44707;DHT22;30433;45.596;8.408;2022-08-18T23:47:55;19.20;99.90
44707;DHT22;30433;45.596;8.408;2022-08-18T23:54:00;19.10;99.90
